sensor_id;sensor_type;location;lat;lon;timestamp;temperature;humidity
82351;SHT30;71951;39.366;22.950;2023-09-19T00:02:22;24;49
82351;SHT30;71951;39.366;22.950;2023-09-19T00:05:50;24;49
82351;SHT30;71951;39.366;22.950;2023-09-19T00:09:16;24;50
82351;SHT30;71951;39.366;22.950;2023-09-19T00:12:48;24;50
82351;SHT30;71951;39.366;22.950;2023-09-19T00:16:15;24;50
82351;SHT30;71951;39.366;22.950;2023-09-19T00:19:41;24;49
82351;SHT30;71951;39.366;22.950;2023-09-19T00:23:08;24;50
82351;SHT30;71951;39.366;22.950;2023-09-19T00:26:36;24;50
82351;SHT30;71951;39.366;22.950;2023-09-19T00:30:03;24;50
82351;SHT30;71951;39.366;22.950;2023-09-19T00:33:29;24;50
82351;SHT30;71951;39.366;22.950;2023-09-19T00:36:56;24;50
82351;SHT30;71951;39.366;22.950;2023-09-19T00:40:23;24;50
82351;SHT30;71951;39.366;22.950;2023-09-19T00:43:50;24;50
82351;SHT30;71951;39.366;22.950;2023-09-19T00:47:20;24;51
82351;SHT30;71951;39.366;22.950;2023-09-19T00:50:48;24;51
82351;SHT30;71951;39.366;22.950;2023-09-19T00:54:17;24;51
82351;SHT30;71951;39.366;22.950;2023-09-19T00:57:44;24;50
82351;SHT30;71951;39.366;22.950;2023-09-19T01:01:11;24;50
82351;SHT30;71951;39.366;22.950;2023-09-19T01:04:38;24;50
82351;SHT30;71951;39.366;22.950;2023-09-19T01:08:05;24;50
82351;SHT30;71951;39.366;22.950;2023-09-19T01:11:35;24;50
82351;SHT30;71951;39.366;22.950;2023-09-19T01:15:10;24;50
82351;SHT30;71951;39.366;22.950;2023-09-19T01:18:46;24;50
82351;SHT30;71951;39.366;22.950;2023-09-19T01:22:19;24;50
82351;SHT30;71951;39.366;22.950;2023-09-19T01:26:04;24;50
82351;SHT30;71951;39.366;22.950;2023-09-19T01:29:37;24;50
82351;SHT30;71951;39.366;22.950;2023-09-19T01:33:05;24;50
82351;SHT30;71951;39.366;22.950;2023-09-19T01:36:34;24;50
82351;SHT30;71951;39.366;22.950;2023-09-19T01:40:06;24;50
82351;SHT30;71951;39.366;22.950;2023-09-19T01:43:37;24;50
82351;SHT30;71951;39.366;22.950;2023-09-19T01:47:16;23;50
82351;SHT30;71951;39.366;22.950;2023-09-19T01:50:56;23;50
82351;SHT30;71951;39.366;22.950;2023-09-19T01:54:27;23;50
82351;SHT30;71951;39.366;22.950;2023-09-19T01:58:04;23;50
82351;SHT30;71951;39.366;22.950;2023-09-19T02:01:33;23;50
82351;SHT30;71951;39.366;22.950;2023-09-19T02:05:00;23;50
82351;SHT30;71951;39.366;22.950;2023-09-19T02:08:27;23;50
82351;SHT30;71951;39.366;22.950;2023-09-19T02:11:54;23;50
82351;SHT30;71951;39.366;22.950;2023-09-19T02:15:20;23;50
82351;SHT30;71951;39.366;22.950;2023-09-19T02:18:48;23;51
82351;SHT30;71951;39.366;22.950;2023-09-19T02:22:14;23;51
82351;SHT30;71951;39.366;22.950;2023-09-19T02:25:41;23;50
82351;SHT30;71951;39.366;22.950;2023-09-19T02:29:08;23;51
82351;SHT30;71951;39.366;22.950;2023-09-19T02:32:34;23;51
82351;SHT30;71951;39.366;22.950;2023-09-19T02:36:01;23;50
82351;SHT30;71951;39.366;22.950;2023-09-19T02:39:28;23;51
82351;SHT30;71951;39.366;22.950;2023-09-19T02:42:55;23;51
82351;SHT30;71951;39.366;22.950;2023-09-19T02:46:22;23;51
82351;SHT30;71951;39.366;22.950;2023-09-19T02:49:49;23;51
82351;SHT30;71951;39.366;22.950;2023-09-19T02:53:15;23;51
82351;SHT30;71951;39.366;22.950;2023-09-19T02:56:42;23;51
82351;SHT30;71951;39.366;22.950;2023-09-19T03:00:10;23;51
82351;SHT30;71951;39.366;22.950;2023-09-19T03:03:37;23;51
82351;SHT30;71951;39.366;22.950;2023-09-19T03:07:04;23;51
82351;SHT30;71951;39.366;22.950;2023-09-19T03:10:31;23;51
82351;SHT30;71951;39.366;22.950;2023-09-19T03:13:57;23;51
82351;SHT30;71951;39.366;22.950;2023-09-19T03:17:24;23;51
82351;SHT30;71951;39.366;22.950;2023-09-19T03:20:53;23;51
82351;SHT30;71951;39.366;22.950;2023-09-19T03:24:19;23;51
82351;SHT30;71951;39.366;22.950;2023-09-19T03:27:46;23;51
82351;SHT30;71951;39.366;22.950;2023-09-19T03:31:13;23;52
82351;SHT30;71951;39.366;22.950;2023-09-19T03:34:40;23;52
82351;SHT30;71951;39.366;22.950;2023-09-19T03:38:07;23;52
82351;SHT30;71951;39.366;22.950;2023-09-19T03:41:33;23;52
82351;SHT30;71951;39.366;22.950;2023-09-19T03:45:01;23;52
82351;SHT30;71951;39.366;22.950;2023-09-19T03:48:28;23;52
82351;SHT30;71951;39.366;22.950;2023-09-19T03:51:54;23;52
82351;SHT30;71951;39.366;22.950;2023-09-19T03:55:22;23;51
82351;SHT30;71951;39.366;22.950;2023-09-19T03:58:49;23;52
82351;SHT30;71951;39.366;22.950;2023-09-19T04:02:16;23;52
82351;SHT30;71951;39.366;22.950;2023-09-19T04:05:42;23;52
82351;SHT30;71951;39.366;22.950;2023-09-19T04:09:09;23;52
82351;SHT30;71951;39.366;22.950;2023-09-19T04:12:35;23;52
82351;SHT30;71951;39.366;22.950;2023-09-19T04:16:02;23;52
82351;SHT30;71951;39.366;22.950;2023-09-19T04:19:29;23;52
82351;SHT30;71951;39.366;22.950;2023-09-19T04:22:55;23;52
82351;SHT30;71951;39.366;22.950;2023-09-19T04:26:22;23;52
82351;SHT30;71951;39.366;22.950;2023-09-19T04:29:48;23;52
82351;SHT30;71951;39.366;22.950;2023-09-19T04:33:15;23;52
82351;SHT30;71951;39.366;22.950;2023-09-19T04:36:42;23;52
82351;SHT30;71951;39.366;22.950;2023-09-19T04:40:10;23;52
82351;SHT30;71951;39.366;22.950;2023-09-19T04:43:37;23;52
82351;SHT30;71951;39.366;22.950;2023-09-19T04:47:04;23;53
82351;SHT30;71951;39.366;22.950;2023-09-19T04:50:30;23;53
82351;SHT30;71951;39.366;22.950;2023-09-19T04:53:58;23;53
82351;SHT30;71951;39.366;22.950;2023-09-19T04:57:24;23;53
82351;SHT30;71951;39.366;22.950;2023-09-19T05:00:51;23;53
82351;SHT30;71951;39.366;22.950;2023-09-19T05:04:17;23;53
82351;SHT30;71951;39.366;22.950;2023-09-19T05:07:44;23;53
82351;SHT30;71951;39.366;22.950;2023-09-19T05:11:11;23;52
82351;SHT30;71951;39.366;22.950;2023-09-19T05:14:39;24;52
82351;SHT30;71951;39.366;22.950;2023-09-19T05:18:06;24;52
82351;SHT30;71951;39.366;22.950;2023-09-19T05:21:32;24;52
82351;SHT30;71951;39.366;22.950;2023-09-19T05:24:59;24;52
82351;SHT30;71951;39.366;22.950;2023-09-19T05:28:27;24;52
82351;SHT30;71951;39.366;22.950;2023-09-19T05:31:53;24;51
82351;SHT30;71951;39.366;22.950;2023-09-19T05:35:20;24;50
82351;SHT30;71951;39.366;22.950;2023-09-19T05:38:47;25;50
82351;SHT30;71951;39.366;22.950;2023-09-19T05:42:13;25;48
82351;SHT30;71951;39.366;22.950;2023-09-19T05:45:40;26;46
82351;SHT30;71951;39.366;22.950;2023-09-19T05:49:06;27;44
82351;SHT30;71951;39.366;22.950;2023-09-19T05:52:33;28;43
82351;SHT30;71951;39.366;22.950;2023-09-19T05:56:00;29;40
82351;SHT30;71951;39.366;22.950;2023-09-19T05:59:26;29;39
82351;SHT30;71951;39.366;22.950;2023-09-19T06:02:53;29;38
82351;SHT30;71951;39.366;22.950;2023-09-19T06:06:20;31;37
82351;SHT30;71951;39.366;22.950;2023-09-19T06:09:46;31;36
82351;SHT30;71951;39.366;22.950;2023-09-19T06:13:14;32;35
82351;SHT30;71951;39.366;22.950;2023-09-19T06:16:41;32;35
82351;SHT30;71951;39.366;22.950;2023-09-19T06:20:08;33;34
82351;SHT30;71951;39.366;22.950;2023-09-19T06:23:34;33;34
82351;SHT30;71951;39.366;22.950;2023-09-19T06:27:01;33;33
82351;SHT30;71951;39.366;22.950;2023-09-19T06:30:28;33;33
82351;SHT30;71951;39.366;22.950;2023-09-19T06:33:54;34;33
82351;SHT30;71951;39.366;22.950;2023-09-19T06:37:22;34;32
82351;SHT30;71951;39.366;22.950;2023-09-19T06:40:48;34;32
82351;SHT30;71951;39.366;22.950;2023-09-19T06:44:15;35;31
82351;SHT30;71951;39.366;22.950;2023-09-19T06:47:42;35;32
82351;SHT30;71951;39.366;22.950;2023-09-19T06:51:08;35;32
82351;SHT30;71951;39.366;22.950;2023-09-19T06:54:35;35;32
82351;SHT30;71951;39.366;22.950;2023-09-19T06:58:03;35;32
82351;SHT30;71951;39.366;22.950;2023-09-19T07:01:29;35;32
82351;SHT30;71951;39.366;22.950;2023-09-19T07:04:57;35;32
82351;SHT30;71951;39.366;22.950;2023-09-19T07:08:24;35;32
82351;SHT30;71951;39.366;22.950;2023-09-19T07:11:50;35;33
82351;SHT30;71951;39.366;22.950;2023-09-19T07:15:17;35;33
82351;SHT30;71951;39.366;22.950;2023-09-19T07:18:44;35;33
82351;SHT30;71951;39.366;22.950;2023-09-19T07:22:12;35;33
82351;SHT30;71951;39.366;22.950;2023-09-19T07:25:40;35;33
82351;SHT30;71951;39.366;22.950;2023-09-19T07:29:07;35;33
82351;SHT30;71951;39.366;22.950;2023-09-19T07:32:34;35;33
82351;SHT30;71951;39.366;22.950;2023-09-19T07:36:00;35;32
82351;SHT30;71951;39.366;22.950;2023-09-19T07:39:27;35;32
82351;SHT30;71951;39.366;22.950;2023-09-19T07:42:53;36;32
82351;SHT30;71951;39.366;22.950;2023-09-19T07:46:20;36;31
82351;SHT30;71951;39.366;22.950;2023-09-19T07:49:47;36;31
82351;SHT30;71951;39.366;22.950;2023-09-19T07:53:13;36;31
82351;SHT30;71951;39.366;22.950;2023-09-19T12:54:56;28;45
82351;SHT30;71951;39.366;22.950;2023-09-19T12:58:23;28;46
82351;SHT30;71951;39.366;22.950;2023-09-19T13:02:03;28;46
82351;SHT30;71951;39.366;22.950;2023-09-19T13:09:09;28;46
82351;SHT30;71951;39.366;22.950;2023-09-19T13:12:37;28;46
82351;SHT30;71951;39.366;22.950;2023-09-19T13:16:04;28;46
82351;SHT30;71951;39.366;22.950;2023-09-19T13:19:39;28;47
82351;SHT30;71951;39.366;22.950;2023-09-19T13:23:26;28;47
82351;SHT30;71951;39.366;22.950;2023-09-19T13:26:53;28;48
82351;SHT30;71951;39.366;22.950;2023-09-19T13:30:20;28;48
82351;SHT30;71951;39.366;22.950;2023-09-19T13:33:47;28;48
82351;SHT30;71951;39.366;22.950;2023-09-19T13:37:14;28;48
82351;SHT30;71951;39.366;22.950;2023-09-19T13:40:41;28;48
82351;SHT30;71951;39.366;22.950;2023-09-19T13:44:08;28;48
82351;SHT30;71951;39.366;22.950;2023-09-19T13:47:34;28;48
82351;SHT30;71951;39.366;22.950;2023-09-19T13:51:02;28;48
82351;SHT30;71951;39.366;22.950;2023-09-19T13:54:29;27;47
82351;SHT30;71951;39.366;22.950;2023-09-19T13:57:56;27;48
82351;SHT30;71951;39.366;22.950;2023-09-19T14:01:23;27;48
82351;SHT30;71951;39.366;22.950;2023-09-19T14:04:50;27;48
82351;SHT30;71951;39.366;22.950;2023-09-19T14:08:17;27;48
82351;SHT30;71951;39.366;22.950;2023-09-19T14:11:43;27;48
82351;SHT30;71951;39.366;22.950;2023-09-19T14:15:10;27;48
82351;SHT30;71951;39.366;22.950;2023-09-19T14:18:37;27;49
82351;SHT30;71951;39.366;22.950;2023-09-19T14:22:04;27;49
82351;SHT30;71951;39.366;22.950;2023-09-19T14:25:31;27;49
82351;SHT30;71951;39.366;22.950;2023-09-19T14:28:57;27;49
82351;SHT30;71951;39.366;22.950;2023-09-19T14:32:24;27;49
82351;SHT30;71951;39.366;22.950;2023-09-19T14:35:50;27;50
82351;SHT30;71951;39.366;22.950;2023-09-19T14:39:17;27;50
82351;SHT30;71951;39.366;22.950;2023-09-19T14:42:44;27;51
82351;SHT30;71951;39.366;22.950;2023-09-19T14:46:10;27;51
82351;SHT30;71951;39.366;22.950;2023-09-19T14:49:37;27;52
82351;SHT30;71951;39.366;22.950;2023-09-19T14:53:04;27;52
82351;SHT30;71951;39.366;22.950;2023-09-19T14:56:30;27;52
82351;SHT30;71951;39.366;22.950;2023-09-19T14:59:57;27;52
82351;SHT30;71951;39.366;22.950;2023-09-19T15:03:23;27;52
82351;SHT30;71951;39.366;22.950;2023-09-19T15:06:50;27;52
82351;SHT30;71951;39.366;22.950;2023-09-19T15:10:16;27;53
82351;SHT30;71951;39.366;22.950;2023-09-19T15:13:44;27;53
82351;SHT30;71951;39.366;22.950;2023-09-19T15:17:11;27;53
82351;SHT30;71951;39.366;22.950;2023-09-19T15:20:43;27;53
82351;SHT30;71951;39.366;22.950;2023-09-19T15:24:09;27;53
82351;SHT30;71951;39.366;22.950;2023-09-19T15:27:36;27;53
82351;SHT30;71951;39.366;22.950;2023-09-19T15:31:04;27;53
82351;SHT30;71951;39.366;22.950;2023-09-19T15:34:36;27;53
82351;SHT30;71951;39.366;22.950;2023-09-19T15:38:03;27;53
82351;SHT30;71951;39.366;22.950;2023-09-19T15:41:32;27;54
82351;SHT30;71951;39.366;22.950;2023-09-19T15:44:58;27;54
82351;SHT30;71951;39.366;22.950;2023-09-19T15:48:25;27;54
82351;SHT30;71951;39.366;22.950;2023-09-19T15:51:52;27;54
82351;SHT30;71951;39.366;22.950;2023-09-19T15:55:18;27;54
82351;SHT30;71951;39.366;22.950;2023-09-19T15:58:45;27;54
82351;SHT30;71951;39.366;22.950;2023-09-19T16:02:12;27;54
82351;SHT30;71951;39.366;22.950;2023-09-19T16:05:39;27;54
82351;SHT30;71951;39.366;22.950;2023-09-19T16:09:06;27;54
82351;SHT30;71951;39.366;22.950;2023-09-19T16:12:32;27;54
82351;SHT30;71951;39.366;22.950;2023-09-19T16:15:59;27;54
82351;SHT30;71951;39.366;22.950;2023-09-19T16:19:26;27;53
82351;SHT30;71951;39.366;22.950;2023-09-19T16:22:52;27;53
82351;SHT30;71951;39.366;22.950;2023-09-19T16:26:20;27;54
82351;SHT30;71951;39.366;22.950;2023-09-19T16:29:47;27;54
82351;SHT30;71951;39.366;22.950;2023-09-19T16:33:13;27;54
82351;SHT30;71951;39.366;22.950;2023-09-19T16:36:40;27;54
82351;SHT30;71951;39.366;22.950;2023-09-19T16:40:07;27;54
82351;SHT30;71951;39.366;22.950;2023-09-19T16:43:35;27;54
82351;SHT30;71951;39.366;22.950;2023-09-19T16:47:01;27;54
82351;SHT30;71951;39.366;22.950;2023-09-19T16:50:28;27;54
82351;SHT30;71951;39.366;22.950;2023-09-19T16:53:55;27;54
82351;SHT30;71951;39.366;22.950;2023-09-19T16:57:22;27;54
82351;SHT30;71951;39.366;22.950;2023-09-19T17:00:49;27;54
82351;SHT30;71951;39.366;22.950;2023-09-19T17:04:16;27;55
82351;SHT30;71951;39.366;22.950;2023-09-19T17:07:42;27;55
82351;SHT30;71951;39.366;22.950;2023-09-19T17:11:10;27;55
82351;SHT30;71951;39.366;22.950;2023-09-19T17:14:37;27;55
82351;SHT30;71951;39.366;22.950;2023-09-19T17:18:04;27;55
82351;SHT30;71951;39.366;22.950;2023-09-19T17:21:31;27;55
82351;SHT30;71951;39.366;22.950;2023-09-19T17:24:58;27;55
82351;SHT30;71951;39.366;22.950;2023-09-19T17:28:24;27;55
82351;SHT30;71951;39.366;22.950;2023-09-19T17:31:51;27;55
82351;SHT30;71951;39.366;22.950;2023-09-19T17:35:18;27;55
82351;SHT30;71951;39.366;22.950;2023-09-19T17:38:47;27;55
82351;SHT30;71951;39.366;22.950;2023-09-19T17:42:14;27;55
82351;SHT30;71951;39.366;22.950;2023-09-19T17:45:46;27;55
82351;SHT30;71951;39.366;22.950;2023-09-19T17:49:12;27;55
82351;SHT30;71951;39.366;22.950;2023-09-19T17:52:39;27;55
82351;SHT30;71951;39.366;22.950;2023-09-19T17:56:07;27;55
82351;SHT30;71951;39.366;22.950;2023-09-19T17:59:34;27;55
82351;SHT30;71951;39.366;22.950;2023-09-19T18:03:01;27;56
82351;SHT30;71951;39.366;22.950;2023-09-19T18:06:28;27;56
82351;SHT30;71951;39.366;22.950;2023-09-19T18:09:55;27;56
82351;SHT30;71951;39.366;22.950;2023-09-19T18:13:21;27;55
82351;SHT30;71951;39.366;22.950;2023-09-19T18:16:48;26;55
82351;SHT30;71951;39.366;22.950;2023-09-19T18:20:15;26;55
82351;SHT30;71951;39.366;22.950;2023-09-19T18:23:42;26;55
82351;SHT30;71951;39.366;22.950;2023-09-19T18:27:08;26;55
82351;SHT30;71951;39.366;22.950;2023-09-19T18:30:36;26;55
82351;SHT30;71951;39.366;22.950;2023-09-19T18:34:03;26;55
82351;SHT30;71951;39.366;22.950;2023-09-19T18:37:30;26;55
82351;SHT30;71951;39.366;22.950;2023-09-19T18:40:56;26;55
82351;SHT30;71951;39.366;22.950;2023-09-19T18:44:23;26;55
82351;SHT30;71951;39.366;22.950;2023-09-19T18:47:50;26;55
82351;SHT30;71951;39.366;22.950;2023-09-19T18:51:17;26;55
82351;SHT30;71951;39.366;22.950;2023-09-19T18:54:43;26;55
82351;SHT30;71951;39.366;22.950;2023-09-19T18:58:10;26;55
82351;SHT30;71951;39.366;22.950;2023-09-19T19:01:37;26;55
82351;SHT30;71951;39.366;22.950;2023-09-19T19:05:04;26;55
82351;SHT30;71951;39.366;22.950;2023-09-19T19:08:31;26;55
82351;SHT30;71951;39.366;22.950;2023-09-19T19:11:58;26;55
82351;SHT30;71951;39.366;22.950;2023-09-19T19:15:25;26;54
82351;SHT30;71951;39.366;22.950;2023-09-19T19:18:52;26;54
82351;SHT30;71951;39.366;22.950;2023-09-19T19:22:19;26;54
82351;SHT30;71951;39.366;22.950;2023-09-19T19:25:46;26;54
82351;SHT30;71951;39.366;22.950;2023-09-19T19:29:13;26;55
82351;SHT30;71951;39.366;22.950;2023-09-19T19:32:40;26;55
82351;SHT30;71951;39.366;22.950;2023-09-19T19:36:08;26;54
82351;SHT30;71951;39.366;22.950;2023-09-19T19:39:35;26;54
82351;SHT30;71951;39.366;22.950;2023-09-19T19:43:02;26;54
82351;SHT30;71951;39.366;22.950;2023-09-19T19:46:28;26;55
82351;SHT30;71951;39.366;22.950;2023-09-19T19:49:55;26;55
82351;SHT30;71951;39.366;22.950;2023-09-19T19:53:24;26;55
82351;SHT30;71951;39.366;22.950;2023-09-19T19:56:50;26;55
82351;SHT30;71951;39.366;22.950;2023-09-19T20:00:17;26;55
82351;SHT30;71951;39.366;22.950;2023-09-19T20:03:44;26;55
82351;SHT30;71951;39.366;22.950;2023-09-19T20:07:10;26;55
82351;SHT30;71951;39.366;22.950;2023-09-19T20:10:37;26;55
82351;SHT30;71951;39.366;22.950;2023-09-19T20:14:04;26;55
82351;SHT30;71951;39.366;22.950;2023-09-19T20:17:30;26;55
82351;SHT30;71951;39.366;22.950;2023-09-19T20:21:04;26;55
82351;SHT30;71951;39.366;22.950;2023-09-19T20:24:31;26;55
82351;SHT30;71951;39.366;22.950;2023-09-19T20:27:57;26;55
82351;SHT30;71951;39.366;22.950;2023-09-19T20:31:24;26;55
82351;SHT30;71951;39.366;22.950;2023-09-19T20:34:50;26;55
82351;SHT30;71951;39.366;22.950;2023-09-19T20:38:17;26;55
82351;SHT30;71951;39.366;22.950;2023-09-19T20:41:44;26;55
82351;SHT30;71951;39.366;22.950;2023-09-19T20:45:10;26;55
82351;SHT30;71951;39.366;22.950;2023-09-19T20:48:37;26;55
82351;SHT30;71951;39.366;22.950;2023-09-19T20:52:05;26;54
82351;SHT30;71951;39.366;22.950;2023-09-19T20:55:31;26;54
82351;SHT30;71951;39.366;22.950;2023-09-19T20:58:58;25;55
82351;SHT30;71951;39.366;22.950;2023-09-19T21:02:25;25;54
82351;SHT30;71951;39.366;22.950;2023-09-19T21:06:00;25;54
82351;SHT30;71951;39.366;22.950;2023-09-19T21:09:26;25;54
82351;SHT30;71951;39.366;22.950;2023-09-19T21:12:53;25;54
82351;SHT30;71951;39.366;22.950;2023-09-19T21:16:19;25;55
82351;SHT30;71951;39.366;22.950;2023-09-19T21:19:46;25;55
82351;SHT30;71951;39.366;22.950;2023-09-19T21:23:13;25;55
82351;SHT30;71951;39.366;22.950;2023-09-19T21:26:39;25;55
82351;SHT30;71951;39.366;22.950;2023-09-19T21:30:07;25;55
82351;SHT30;71951;39.366;22.950;2023-09-19T21:33:35;25;55
82351;SHT30;71951;39.366;22.950;2023-09-19T21:37:02;25;55
82351;SHT30;71951;39.366;22.950;2023-09-19T21:40:29;25;55
82351;SHT30;71951;39.366;22.950;2023-09-19T21:43:56;25;54
82351;SHT30;71951;39.366;22.950;2023-09-19T21:47:23;25;54
82351;SHT30;71951;39.366;22.950;2023-09-19T21:50:52;25;54
82351;SHT30;71951;39.366;22.950;2023-09-19T21:54:19;25;54
82351;SHT30;71951;39.366;22.950;2023-09-19T21:57:46;25;54
82351;SHT30;71951;39.366;22.950;2023-09-19T22:01:13;25;54
82351;SHT30;71951;39.366;22.950;2023-09-19T22:04:39;25;54
82351;SHT30;71951;39.366;22.950;2023-09-19T22:08:06;25;54
82351;SHT30;71951;39.366;22.950;2023-09-19T22:11:33;25;54
82351;SHT30;71951;39.366;22.950;2023-09-19T22:15:00;25;54
82351;SHT30;71951;39.366;22.950;2023-09-19T22:18:28;25;55
82351;SHT30;71951;39.366;22.950;2023-09-19T22:21:55;25;55
82351;SHT30;71951;39.366;22.950;2023-09-19T22:25:23;25;54
82351;SHT30;71951;39.366;22.950;2023-09-19T22:28:51;25;53
82351;SHT30;71951;39.366;22.950;2023-09-19T22:32:18;25;53
82351;SHT30;71951;39.366;22.950;2023-09-19T22:35:46;25;53
82351;SHT30;71951;39.366;22.950;2023-09-19T22:39:13;25;53
82351;SHT30;71951;39.366;22.950;2023-09-19T22:42:40;25;53
82351;SHT30;71951;39.366;22.950;2023-09-19T22:46:06;25;54
82351;SHT30;71951;39.366;22.950;2023-09-19T22:49:33;25;55
82351;SHT30;71951;39.366;22.950;2023-09-19T22:53:00;25;56
82351;SHT30;71951;39.366;22.950;2023-09-19T22:56:26;25;56
82351;SHT30;71951;39.366;22.950;2023-09-19T22:59:53;25;56
82351;SHT30;71951;39.366;22.950;2023-09-19T23:03:20;25;56
82351;SHT30;71951;39.366;22.950;2023-09-19T23:06:48;25;56
82351;SHT30;71951;39.366;22.950;2023-09-19T23:10:15;25;56
82351;SHT30;71951;39.366;22.950;2023-09-19T23:13:42;25;56
82351;SHT30;71951;39.366;22.950;2023-09-19T23:17:09;25;56
82351;SHT30;71951;39.366;22.950;2023-09-19T23:20:35;25;57
82351;SHT30;71951;39.366;22.950;2023-09-19T23:24:02;25;57
82351;SHT30;71951;39.366;22.950;2023-09-19T23:27:29;25;57
82351;SHT30;71951;39.366;22.950;2023-09-19T23:30:55;25;57
82351;SHT30;71951;39.366;22.950;2023-09-19T23:34:22;25;57
82351;SHT30;71951;39.366;22.950;2023-09-19T23:37:49;25;57
82351;SHT30;71951;39.366;22.950;2023-09-19T23:41:15;25;55
82351;SHT30;71951;39.366;22.950;2023-09-19T23:44:42;25;55
82351;SHT30;71951;39.366;22.950;2023-09-19T23:48:09;25;55
82351;SHT30;71951;39.366;22.950;2023-09-19T23:51:36;25;55
82351;SHT30;71951;39.366;22.950;2023-09-19T23:55:04;25;56
82351;SHT30;71951;39.366;22.950;2023-09-19T23:58:31;25;56
